sim
Sign-in with your pilot id or email,
or register
Callsign
Passwort

Schedule Details

Flight Number: OEF9007
Departure: Kolkata International Airport (VECC) at 10:20
Arrival: Mumbai Chhatrapati Shivaji International Airport (VABB) at 12:50

Weather Information
Getting current METAR information for VECC 100000Z 00000KT 2800 HZ FEW020 17/13 Q1014 NOSIG
Getting current METAR information for VABB 100000Z 12003KT 2500 HZ NSC 26/20 Q1012 NOSIG

Schedule Frequency

Route Map